createdAt,value
2023-03-18T00:01:29.620Z,48.68
2023-03-18T00:03:57.800Z,48.76
2023-03-18T00:06:26.149Z,49.17
2023-03-18T00:08:54.395Z,48.74
2023-03-18T00:11:24.434Z,48.57
2023-03-18T00:13:52.876Z,48.93
2023-03-18T00:16:21.330Z,48.92
2023-03-18T00:18:50.391Z,49.49
2023-03-18T00:21:20.055Z,49.00
2023-03-18T00:23:48.934Z,49.25
2023-03-18T00:26:17.617Z,48.92
2023-03-18T00:28:47.543Z,48.98
2023-03-18T00:31:16.020Z,49.16
2023-03-18T00:33:45.810Z,49.01
2023-03-18T00:36:15.380Z,49.05
2023-03-18T00:38:46.621Z,49.33
2023-03-18T00:41:16.498Z,49.09
2023-03-18T00:43:52.604Z,49.07
2023-03-18T00:46:24.598Z,48.93
2023-03-18T00:48:54.956Z,49.02
2023-03-18T00:51:25.953Z,49.34
2023-03-18T00:53:57.661Z,49.12
2023-03-18T00:56:29.431Z,49.38
2023-03-18T00:59:00.027Z,49.71
2023-03-18T01:01:29.845Z,49.14
2023-03-18T01:03:58.495Z,49.88
2023-03-18T01:06:30.087Z,49.45
2023-03-18T01:08:59.590Z,48.78
2023-03-18T01:11:28.620Z,49.57
2023-03-18T01:13:59.308Z,48.58
2023-03-18T01:16:28.205Z,49.31
2023-03-18T01:18:56.645Z,49.23
2023-03-18T01:21:25.504Z,48.89
2023-03-18T01:23:54.278Z,49.18
2023-03-18T01:26:23.159Z,49.28
2023-03-18T01:28:51.711Z,49.19
2023-03-18T01:31:21.204Z,49.24
2023-03-18T01:33:49.905Z,49.03
2023-03-18T01:36:18.424Z,49.22
2023-03-18T01:38:46.701Z,49.15
2023-03-18T01:41:16.749Z,49.50
2023-03-18T01:43:45.045Z,49.42
2023-03-18T01:46:38.316Z,49.03
2023-03-18T01:49:12.614Z,48.95
2023-03-18T01:51:47.344Z,49.66
2023-03-18T01:54:17.562Z,50.14
2023-03-18T01:56:50.473Z,50.05
2023-03-18T01:59:22.393Z,49.77
2023-03-18T02:01:58.165Z,50.19
2023-03-18T02:04:33.602Z,49.70
2023-03-18T02:07:02.315Z,49.64
2023-03-18T02:09:30.847Z,50.38
2023-03-18T02:12:02.264Z,49.86
2023-03-18T02:14:30.783Z,50.36
2023-03-18T02:17:14.283Z,50.22
2023-03-18T02:19:59.127Z,50.95
2023-03-18T02:22:33.159Z,50.68
2023-03-18T02:25:22.823Z,50.49
2023-03-18T02:27:59.165Z,50.78
2023-03-18T02:30:32.835Z,49.91
2023-03-18T02:33:02.539Z,50.09
2023-03-18T02:35:33.673Z,50.67
2023-03-18T02:38:01.924Z,51.09
2023-03-18T02:40:34.106Z,51.02
2023-03-18T02:43:21.125Z,50.91
2023-03-18T02:46:25.611Z,50.59
2023-03-18T02:48:54.983Z,50.83
2023-03-18T02:51:23.155Z,50.85
2023-03-18T02:53:52.288Z,51.61
2023-03-18T02:56:20.420Z,50.79
2023-03-18T02:58:51.683Z,51.35
2023-03-18T03:01:20.963Z,51.42
2023-03-18T03:03:49.979Z,51.78
2023-03-18T03:06:18.501Z,52.06
2023-03-18T03:08:47.369Z,52.40
2023-03-18T03:11:15.828Z,51.81
2023-03-18T03:13:45.958Z,52.27
2023-03-18T03:16:17.284Z,52.56
2023-03-18T03:18:45.778Z,52.83
2023-03-18T03:21:16.159Z,53.14
2023-03-18T03:23:45.995Z,52.88
2023-03-18T03:26:14.437Z,53.14
2023-03-18T03:28:43.002Z,53.63
2023-03-18T03:31:11.801Z,53.93
2023-03-18T03:33:43.693Z,53.28
2023-03-18T03:36:14.928Z,53.32
2023-03-18T03:38:43.527Z,52.52
2023-03-18T03:41:15.645Z,53.03
2023-03-18T03:43:44.837Z,53.00
2023-03-18T03:46:13.765Z,52.02
2023-03-18T03:48:43.295Z,52.92
2023-03-18T03:51:11.383Z,52.41
2023-03-18T03:53:39.513Z,52.56
2023-03-18T03:56:09.191Z,52.80
2023-03-18T03:58:37.792Z,53.67
2023-03-18T04:01:06.476Z,53.69
2023-03-18T04:03:34.948Z,53.16
2023-03-18T04:06:04.531Z,53.72
2023-03-18T04:08:32.723Z,54.05
2023-03-18T04:11:00.910Z,53.70
2023-03-18T04:13:29.076Z,52.49
2023-03-18T04:15:57.221Z,52.66
2023-03-18T04:18:25.931Z,53.36
2023-03-18T04:20:54.180Z,53.84
2023-03-18T04:23:23.655Z,53.02
2023-03-18T04:25:51.768Z,53.72
2023-03-18T04:28:19.874Z,53.49
2023-03-18T04:30:50.552Z,54.06
2023-03-18T04:33:19.387Z,53.61
2023-03-18T04:35:49.743Z,53.98
2023-03-18T04:38:18.076Z,54.12
2023-03-18T04:40:47.809Z,53.40
2023-03-18T04:43:16.116Z,53.29
2023-03-18T04:45:45.013Z,52.77
2023-03-18T04:48:13.163Z,53.67
2023-03-18T04:50:41.360Z,53.84
2023-03-18T04:53:09.921Z,53.89
2023-03-18T04:55:38.109Z,53.12
2023-03-18T04:58:07.595Z,53.78
2023-03-18T05:00:35.941Z,52.96
2023-03-18T05:03:04.474Z,53.13
2023-03-18T05:05:32.898Z,53.52
2023-03-18T05:08:01.223Z,54.11
2023-03-18T05:10:29.784Z,54.19
2023-03-18T05:12:57.911Z,53.89
2023-03-18T05:15:27.542Z,53.65
2023-03-18T05:17:55.648Z,53.56
2023-03-18T05:20:23.865Z,53.73
2023-03-18T05:22:52.300Z,53.31
2023-03-18T05:25:22.641Z,53.60
2023-03-18T05:27:50.735Z,53.71
2023-03-18T05:30:19.518Z,54.68
2023-03-18T05:32:49.035Z,54.20
2023-03-18T05:35:17.680Z,54.35
2023-03-18T05:37:46.566Z,54.70
2023-03-18T05:40:15.364Z,54.47
2023-03-18T05:42:55.394Z,54.32
2023-03-18T05:45:24.307Z,54.85
2023-03-18T05:47:53.925Z,54.95
2023-03-18T05:50:31.349Z,55.21
2023-03-18T05:53:00.750Z,55.19
2023-03-18T05:55:29.673Z,55.36
2023-03-18T05:57:59.025Z,55.32
2023-03-18T06:00:28.654Z,55.32
2023-03-18T06:02:59.765Z,55.34
2023-03-18T06:05:29.776Z,55.43
2023-03-18T06:07:58.659Z,55.23
2023-03-18T06:10:27.798Z,55.33
2023-03-18T06:12:56.816Z,55.66
2023-03-18T06:15:25.610Z,55.75
2023-03-18T06:17:53.817Z,54.25
2023-03-18T06:20:23.541Z,55.17
2023-03-18T06:22:51.925Z,55.00
2023-03-18T06:25:22.402Z,54.11
2023-03-18T06:27:51.055Z,54.19
2023-03-18T06:30:20.597Z,53.41
2023-03-18T06:32:48.758Z,53.80
2023-03-18T06:35:17.290Z,53.97
2023-03-18T06:37:46.790Z,54.11
2023-03-18T06:40:15.593Z,54.06
2023-03-18T06:42:44.544Z,53.96
2023-03-18T06:45:13.666Z,54.22
2023-03-18T06:47:42.976Z,53.44
2023-03-18T06:50:13.533Z,54.10
2023-03-18T06:52:42.303Z,53.77
2023-03-18T06:55:13.025Z,53.53
2023-03-18T06:57:41.537Z,53.33
2023-03-18T07:00:12.595Z,52.69
2023-03-18T07:02:40.969Z,52.80
2023-03-18T07:05:10.446Z,51.95
2023-03-18T07:07:38.656Z,52.52
2023-03-18T07:10:09.367Z,52.67
2023-03-18T07:12:40.244Z,51.88
2023-03-18T07:15:11.554Z,52.40
2023-03-18T07:17:39.659Z,52.78
2023-03-18T07:20:09.088Z,52.40
2023-03-18T07:22:37.810Z,52.06
2023-03-18T07:25:07.582Z,52.03
2023-03-18T07:27:36.033Z,51.88
2023-03-18T07:30:09.444Z,51.19
2023-03-18T07:32:38.690Z,51.27
2023-03-18T07:35:10.794Z,50.75
2023-03-18T07:37:40.296Z,50.47
2023-03-18T07:40:10.206Z,49.90
2023-03-18T07:42:38.876Z,49.69
2023-03-18T07:45:10.648Z,50.05
2023-03-18T07:47:39.053Z,49.73
2023-03-18T07:50:08.810Z,49.93
2023-03-18T07:52:37.388Z,49.07
2023-03-18T07:55:07.024Z,49.20
2023-03-18T07:57:35.397Z,48.54
2023-03-18T08:00:05.117Z,48.71
2023-03-18T08:02:36.074Z,49.15
2023-03-18T08:05:06.821Z,49.13
2023-03-18T08:07:35.708Z,49.84
2023-03-18T08:10:04.856Z,49.72
2023-03-18T08:12:45.340Z,50.63
2023-03-18T08:15:17.739Z,51.18
2023-03-18T08:17:47.306Z,51.45
2023-03-18T08:20:15.608Z,51.22
2023-03-18T08:22:45.881Z,52.04
2023-03-18T08:25:15.457Z,51.70
2023-03-18T08:27:44.069Z,52.11
2023-03-18T08:30:15.064Z,51.24
2023-03-18T08:32:43.883Z,50.71
2023-03-18T08:35:14.232Z,50.81
2023-03-18T08:37:42.559Z,51.45
2023-03-18T08:40:13.366Z,51.69
2023-03-18T08:42:41.551Z,51.84
2023-03-18T08:45:11.160Z,51.59
2023-03-18T08:47:39.605Z,51.24
2023-03-18T08:50:08.986Z,51.11
2023-03-18T08:52:39.801Z,50.91
2023-03-18T08:55:10.058Z,50.50
2023-03-18T08:57:38.884Z,50.52
2023-03-18T09:00:09.116Z,50.83
2023-03-18T09:02:37.315Z,51.06
2023-03-18T09:05:06.763Z,50.26
2023-03-18T09:07:35.248Z,50.17
2023-03-18T09:10:06.135Z,49.48
2023-03-18T09:12:34.510Z,49.27
2023-03-18T09:15:03.171Z,49.05
2023-03-18T09:17:51.097Z,48.50
2023-03-18T09:20:19.683Z,46.69
2023-03-18T09:22:50.924Z,46.87
2023-03-18T09:25:20.695Z,46.94
2023-03-18T09:27:48.949Z,46.37
2023-03-18T09:30:17.393Z,46.55
2023-03-18T09:32:45.733Z,46.65
2023-03-18T09:35:14.664Z,46.83
2023-03-18T09:37:43.922Z,46.50
2023-03-18T09:40:24.631Z,45.45
2023-03-18T09:43:10.606Z,45.01
2023-03-18T09:45:57.053Z,45.39
2023-03-18T09:49:18.679Z,45.67
2023-03-18T09:52:04.878Z,44.64
2023-03-18T09:54:39.623Z,44.11
2023-03-18T09:57:19.505Z,43.51
2023-03-18T09:59:54.694Z,42.19
2023-03-18T10:02:33.339Z,42.56
2023-03-18T10:05:06.744Z,42.61
2023-03-18T10:07:41.532Z,42.85
2023-03-18T10:10:19.266Z,43.28
2023-03-18T10:12:55.326Z,42.49
2023-03-18T10:15:32.447Z,42.48
2023-03-18T10:18:11.518Z,42.43
2023-03-18T10:20:56.136Z,42.37
2023-03-18T10:23:39.171Z,41.80
2023-03-18T10:26:17.409Z,41.46
2023-03-18T10:29:08.608Z,41.61
2023-03-18T10:31:50.961Z,41.70
2023-03-18T10:34:23.930Z,42.72
2023-03-18T10:37:00.339Z,42.20
2023-03-18T10:39:30.588Z,42.06
2023-03-18T10:42:21.814Z,42.12
2023-03-18T10:44:52.772Z,41.89
2023-03-18T10:47:28.262Z,41.70
2023-03-18T10:50:06.056Z,41.17
2023-03-18T10:52:42.516Z,41.09
2023-03-18T10:55:18.110Z,41.48
2023-03-18T10:57:46.355Z,41.25
2023-03-18T11:00:28.706Z,41.71
2023-03-18T11:02:58.529Z,40.93
2023-03-18T11:05:29.893Z,41.55
2023-03-18T11:08:02.036Z,41.70
2023-03-18T11:10:35.885Z,42.22
2023-03-18T11:13:06.236Z,42.25
2023-03-18T11:15:40.318Z,43.29
2023-03-18T11:18:19.813Z,43.63
2023-03-18T11:20:55.305Z,43.82
2023-03-18T11:23:46.228Z,43.62
2023-03-18T11:26:23.055Z,43.83
2023-03-18T11:28:56.136Z,44.30
2023-03-18T11:31:25.957Z,44.35
2023-03-18T11:34:00.627Z,44.40
2023-03-18T11:36:32.308Z,44.52
2023-03-18T11:39:05.585Z,44.86
2023-03-18T11:41:33.803Z,45.17
2023-03-18T11:44:04.948Z,45.37
2023-03-18T11:46:40.526Z,45.15
2023-03-18T11:49:16.220Z,45.12
2023-03-18T11:51:59.438Z,44.04
2023-03-18T11:55:04.211Z,44.31
2023-03-18T11:57:49.964Z,44.09
2023-03-18T12:00:33.376Z,44.76
2023-03-18T12:03:54.385Z,44.40
2023-03-18T12:06:24.927Z,44.81
2023-03-18T12:09:07.285Z,45.29
2023-03-18T12:12:00.681Z,45.67
2023-03-18T12:14:38.809Z,46.01
2023-03-18T12:17:27.077Z,46.41
2023-03-18T12:20:40.283Z,45.76
2023-03-18T12:23:38.647Z,45.43
2023-03-18T12:26:10.925Z,45.46
2023-03-18T12:28:54.909Z,45.76
2023-03-18T12:31:53.285Z,45.61
2023-03-18T12:34:46.387Z,45.47
2023-03-18T12:37:34.282Z,45.24
2023-03-18T12:40:36.470Z,44.79
2023-03-18T12:43:46.098Z,45.54
2023-03-18T12:46:28.763Z,45.38
2023-03-18T12:49:10.761Z,45.62
2023-03-18T12:51:47.923Z,45.64
2023-03-18T12:54:25.822Z,45.88
2023-03-18T12:57:03.560Z,45.89
2023-03-18T12:59:39.892Z,45.75
2023-03-18T13:02:41.247Z,45.71
2023-03-18T13:05:24.855Z,45.36
2023-03-18T13:08:07.627Z,45.34
2023-03-18T13:10:37.912Z,45.39
2023-03-18T13:13:11.507Z,46.10
2023-03-18T13:15:46.086Z,45.98
2023-03-18T13:18:20.109Z,45.98
2023-03-18T13:20:51.102Z,45.81
2023-03-18T13:23:45.491Z,46.07
2023-03-18T13:26:25.795Z,46.14
2023-03-18T13:29:13.981Z,46.21
2023-03-18T13:31:56.029Z,46.37
2023-03-18T13:35:13.323Z,46.30
2023-03-18T13:38:50.152Z,45.96
2023-03-18T13:42:09.131Z,45.41
2023-03-18T13:44:45.034Z,45.88
2023-03-18T13:47:20.806Z,45.19
2023-03-18T13:49:50.216Z,45.79
2023-03-18T13:52:30.350Z,45.50
2023-03-18T13:55:06.479Z,45.84
2023-03-18T13:57:49.453Z,46.07
2023-03-18T14:00:40.409Z,45.94
2023-03-18T14:03:21.917Z,46.18
2023-03-18T14:05:51.636Z,45.52
2023-03-18T14:08:50.223Z,45.62
2023-03-18T14:11:50.329Z,46.29
2023-03-18T14:14:54.863Z,46.60
2023-03-18T14:17:49.322Z,46.27
2023-03-18T14:20:39.427Z,46.53
2023-03-18T14:23:35.549Z,46.25
2023-03-18T14:26:08.800Z,46.38
2023-03-18T14:28:49.186Z,46.41
2023-03-18T14:31:33.091Z,46.50
2023-03-18T14:34:25.548Z,46.07
2023-03-18T14:37:29.316Z,46.15
2023-03-18T14:40:07.228Z,45.45
2023-03-18T14:43:00.813Z,45.08
2023-03-18T14:45:35.111Z,45.14
2023-03-18T14:48:16.716Z,45.37
2023-03-18T14:50:50.276Z,45.95
2023-03-18T14:53:28.561Z,45.38
2023-03-18T14:55:59.540Z,45.61
2023-03-18T14:58:28.584Z,45.86
2023-03-18T15:01:05.078Z,46.07
2023-03-18T15:03:35.015Z,46.14
2023-03-18T15:06:08.007Z,46.16
2023-03-18T15:08:48.049Z,46.53
2023-03-18T15:11:20.302Z,47.26
2023-03-18T15:13:48.536Z,47.72
2023-03-18T15:16:23.865Z,47.71
2023-03-18T15:18:56.906Z,48.31
2023-03-18T15:21:32.321Z,48.85
2023-03-18T15:24:05.261Z,48.61
2023-03-18T15:26:38.527Z,48.28
2023-03-18T15:29:27.957Z,48.57
2023-03-18T15:32:10.657Z,48.36
2023-03-18T15:34:44.689Z,48.05
2023-03-18T15:37:33.550Z,47.41
2023-03-18T15:40:29.761Z,47.48
2023-03-18T15:43:04.296Z,47.62
2023-03-18T15:45:34.114Z,47.47
2023-03-18T15:48:09.074Z,47.68
2023-03-18T15:50:38.749Z,47.63
2023-03-18T15:53:21.496Z,47.69
2023-03-18T15:55:52.770Z,48.28
2023-03-18T15:58:26.750Z,48.44
2023-03-18T16:00:57.471Z,49.14
2023-03-18T16:03:30.563Z,49.55
2023-03-18T16:06:01.919Z,49.41
2023-03-18T16:08:30.513Z,50.09
2023-03-18T16:11:05.746Z,50.49
2023-03-18T16:13:37.448Z,50.33
2023-03-18T16:16:06.491Z,50.59
2023-03-18T16:18:34.898Z,50.83
2023-03-18T16:21:04.720Z,50.88
2023-03-18T16:23:33.192Z,51.00
2023-03-18T16:26:02.110Z,51.54
2023-03-18T16:28:30.250Z,51.93
2023-03-18T16:30:58.517Z,52.21
2023-03-18T16:33:26.972Z,52.42
2023-03-18T16:35:59.147Z,52.67
2023-03-18T16:38:31.022Z,53.46
2023-03-18T16:40:59.329Z,53.63
2023-03-18T16:43:29.829Z,54.53
2023-03-18T16:46:03.959Z,54.67
2023-03-18T16:48:32.685Z,54.79
2023-03-18T16:51:02.771Z,54.89
2023-03-18T16:53:33.189Z,55.59
2023-03-18T16:56:11.049Z,55.71
2023-03-18T16:58:39.284Z,55.80
2023-03-18T17:01:07.861Z,56.27
2023-03-18T17:03:37.040Z,56.58
2023-03-18T17:06:06.718Z,56.65
2023-03-18T17:08:36.734Z,56.79
2023-03-18T17:11:05.995Z,57.12
2023-03-18T17:13:38.541Z,57.42
2023-03-18T17:16:15.271Z,58.09
2023-03-18T17:18:43.420Z,58.03
2023-03-18T17:21:13.200Z,58.34
2023-03-18T17:23:42.792Z,58.65
2023-03-18T17:26:15.782Z,58.86
2023-03-18T17:28:46.702Z,59.32
2023-03-18T17:31:15.382Z,59.46
2023-03-18T17:33:44.232Z,60.18
2023-03-18T17:36:12.582Z,60.12
2023-03-18T17:38:42.145Z,60.42
2023-03-18T17:41:20.841Z,60.63
2023-03-18T17:43:49.175Z,61.17
2023-03-18T17:46:17.468Z,61.28
2023-03-18T17:48:46.160Z,61.71
2023-03-18T17:51:18.573Z,61.92
2023-03-18T17:53:51.338Z,62.31
2023-03-18T17:56:20.948Z,62.74
2023-03-18T17:58:52.385Z,62.79
2023-03-18T18:01:26.550Z,62.86
2023-03-18T18:03:56.247Z,62.89
2023-03-18T18:06:28.997Z,63.03
2023-03-18T18:09:00.332Z,63.33
2023-03-18T18:11:31.182Z,63.26
2023-03-18T18:14:11.232Z,63.50
2023-03-18T18:16:39.597Z,63.53
2023-03-18T18:19:08.666Z,63.68
2023-03-18T18:21:37.487Z,63.88
2023-03-18T18:24:19.153Z,63.92
2023-03-18T18:26:48.231Z,64.11
2023-03-18T18:29:22.213Z,64.34
2023-03-18T18:31:52.195Z,64.36
2023-03-18T18:34:21.167Z,64.32
2023-03-18T18:36:50.636Z,64.32
2023-03-18T18:39:20.875Z,64.28
2023-03-18T18:41:49.290Z,64.20
2023-03-18T18:44:18.977Z,64.28
2023-03-18T18:46:47.686Z,64.38
2023-03-18T18:49:22.235Z,64.38
2023-03-18T18:51:53.200Z,64.45
2023-03-18T18:54:22.787Z,64.34
2023-03-18T18:56:52.125Z,64.04
2023-03-18T18:59:24.724Z,64.17
2023-03-18T19:01:53.351Z,63.99
2023-03-18T19:04:22.872Z,63.94
2023-03-18T19:06:52.353Z,63.81
2023-03-18T19:09:25.967Z,63.51
2023-03-18T19:11:56.098Z,63.83
2023-03-18T19:14:27.189Z,63.48
2023-03-18T19:16:58.866Z,63.18
2023-03-18T19:19:30.426Z,63.49
2023-03-18T19:21:58.820Z,63.50
2023-03-18T19:24:30.952Z,63.53
2023-03-18T19:27:02.867Z,63.80
2023-03-18T19:29:32.997Z,63.53
2023-03-18T19:32:02.161Z,63.75
2023-03-18T19:34:32.009Z,64.04
2023-03-18T19:37:02.617Z,64.20
2023-03-18T19:39:32.188Z,64.17
2023-03-18T19:42:00.428Z,64.15
2023-03-18T19:44:28.712Z,64.16
2023-03-18T19:47:01.050Z,64.49
2023-03-18T19:49:33.517Z,64.67
2023-03-18T19:52:02.314Z,64.82
2023-03-18T19:54:34.784Z,64.71
2023-03-18T19:57:06.673Z,64.85
2023-03-18T19:59:39.688Z,64.92
2023-03-18T20:02:24.216Z,65.01
2023-03-18T20:04:54.609Z,64.76
2023-03-18T20:07:25.576Z,64.93
2023-03-18T20:09:56.254Z,65.02
2023-03-18T20:12:29.842Z,64.90
2023-03-18T20:14:58.112Z,64.76
2023-03-18T20:17:32.245Z,64.74
2023-03-18T20:20:01.012Z,64.66
2023-03-18T20:22:33.733Z,64.29
2023-03-18T20:25:05.845Z,64.37
2023-03-18T20:27:34.384Z,64.30
2023-03-18T20:30:03.230Z,64.27
2023-03-18T20:32:31.766Z,64.25
2023-03-18T20:35:02.901Z,64.07
2023-03-18T20:37:35.936Z,64.05
2023-03-18T20:40:12.220Z,63.85
2023-03-18T20:42:41.437Z,63.70
2023-03-18T20:45:15.807Z,63.59
2023-03-18T20:47:44.307Z,63.58
2023-03-18T20:50:15.521Z,63.49
2023-03-18T20:52:45.483Z,63.61
2023-03-18T20:55:26.468Z,63.52
2023-03-18T20:57:55.391Z,63.45
2023-03-18T21:00:26.873Z,63.45
2023-03-18T21:02:58.003Z,62.91
2023-03-18T21:05:27.525Z,62.98
2023-03-18T21:07:55.823Z,62.72
2023-03-18T21:10:28.215Z,62.17
2023-03-18T21:12:56.426Z,62.07
2023-03-18T21:15:28.154Z,62.42
2023-03-18T21:17:56.478Z,62.61
2023-03-18T21:20:29.985Z,62.40
2023-03-18T21:22:58.088Z,62.37
2023-03-18T21:25:29.276Z,62.52
2023-03-18T21:27:58.327Z,62.49
2023-03-18T21:30:26.516Z,62.32
2023-03-18T21:32:54.722Z,62.55
2023-03-18T21:35:25.660Z,62.48
2023-03-18T21:37:54.466Z,62.25
2023-03-18T21:40:25.033Z,62.13
2023-03-18T21:42:54.778Z,62.46
2023-03-18T21:45:24.358Z,62.11
2023-03-18T21:47:53.104Z,62.43
2023-03-18T21:50:24.298Z,62.46
2023-03-18T21:52:54.981Z,62.58
2023-03-18T21:55:23.668Z,62.87
2023-03-18T21:57:51.840Z,62.96
2023-03-18T22:00:22.461Z,63.25
2023-03-18T22:02:51.007Z,63.14
2023-03-18T22:05:22.837Z,63.19
2023-03-18T22:07:52.126Z,63.07
2023-03-18T22:10:23.944Z,63.45
2023-03-18T22:12:52.494Z,63.87
2023-03-18T22:15:46.716Z,64.33
2023-03-18T22:18:15.905Z,64.50
2023-03-18T22:20:47.064Z,64.74
2023-03-18T22:23:22.305Z,64.75
2023-03-18T22:25:53.431Z,64.93
2023-03-18T22:28:22.935Z,64.90
2023-03-18T22:30:55.186Z,65.05
2023-03-18T22:33:29.468Z,65.37
2023-03-18T22:35:58.152Z,65.13
2023-03-18T22:38:27.298Z,65.54
2023-03-18T22:40:58.577Z,64.95
2023-03-18T22:43:31.926Z,65.04
2023-03-18T22:46:03.863Z,64.95
2023-03-18T22:48:32.554Z,65.21
2023-03-18T22:51:01.729Z,65.05
2023-03-18T22:53:36.617Z,65.16
2023-03-18T22:56:11.395Z,65.24
2023-03-18T22:58:40.641Z,65.27
2023-03-18T23:01:15.465Z,65.11
2023-03-18T23:03:44.750Z,65.18
2023-03-18T23:06:18.552Z,65.40
2023-03-18T23:08:47.222Z,65.07
2023-03-18T23:11:16.992Z,64.69
2023-03-18T23:13:49.753Z,63.85
2023-03-18T23:16:21.764Z,64.18
2023-03-18T23:18:51.412Z,64.18
2023-03-18T23:21:22.873Z,64.32
2023-03-18T23:23:52.387Z,64.03
2023-03-18T23:26:21.552Z,63.92
2023-03-18T23:28:49.843Z,63.45
2023-03-18T23:31:19.378Z,63.50
2023-03-18T23:33:48.090Z,63.76
2023-03-18T23:36:16.598Z,63.48
2023-03-18T23:38:44.764Z,63.03
2023-03-18T23:41:13.000Z,63.42
2023-03-18T23:43:41.207Z,63.32
2023-03-18T23:46:09.514Z,63.33
2023-03-18T23:48:39.132Z,63.35
2023-03-18T23:51:07.511Z,63.45
2023-03-18T23:53:35.776Z,63.45
2023-03-18T23:56:04.159Z,63.50
2023-03-18T23:58:32.310Z,63.89
